Alberta, Minnesota
Current Conditions -  °F | °C
As of 12:13 PM on Thursday 29 Jan 2015 (Local Time) from KMOX Reporting Station
Light Snow Light Snow  
Wind Chill:   Ceiling: 1900
Heat Index: 21°   Visibility: 7mi
Dew Point: 16°   Wind: 30mph
Humidity: 80%   Direction: 330°NNW
Pressure: 30.4"   Gusts: 35mph
Location:  45.57°N, 96.05°W
Report Text: KMOX 291813Z AUTO 33026G30KT 7SM -SN BKN019 OVC024 M06/M09 A3040 RMK AO2
Loading
Personal Weather Stations






























Interactive Weather Map New forecast layout! Learn more

10-Day Weather Forecast

Advertisements
Track Severe Weather on mobile